Terminal Aerodrome Forecast
Issued by NWS Binghamton, NY

Home | Current Version | Previous Version | Text Only | Print | Product List | Glossary On
Versions: 1 2 3 4 5 6 7 8 9 10 11 12 13 14 15
000
FTUS41 KBGM 301100
TAFAVP
TAF
KAVP 301130Z 3012/0112 VRB03KT P6SM FEW012
      TEMPO 3012/3013 3SM BR
     FM301400 VRB03KT P6SM SCT050
     FM301700 VRB03KT P6SM BKN050 PROB30 3022/0102 3SM SHRA BR
      OVC025
     FM010300 VRB03KT 5SM BR BKN070
     FM010600 VRB03KT 3SM BR BKN015=

USA.gov is the U.S. government's official web portal to all federal, state and local government web resources and services.